AirNav   Air Wisconsin Up To $57,000 Bonus
 
 484 users online  

NH34 Brady Sullivan-Elm Helistop Heliport
Manchester, New Hampshire, USA


FAA INFORMATION EFFECTIVE 26 MARCH 2020

Location

FAA Identifier: NH34
Lat/Long: 42-59-32.6200N 071-27-55.2100W
42-59.543667N 071-27.920167W
42.9923944,-71.4653361
(estimated)
Elevation: 250 ft. / 76 m (estimated)
From city: 1 mile N of MANCHESTER, NH
Time zone: UTC -4 (UTC -5 during Standard Time)
Zip code: 03101

Heliport Operations

Heliport use: Private use. Permission required prior to landing
Activation date: 03/2018
Control tower: no
ARTCC: BOSTON CENTER
FSS: BANGOR FLIGHT SERVICE STATION
Attendance: 
Wind indicator: no
Segmented circle: no

Heliport Communications

WX ASOS at MHT (4 nm S): 119.55 (603-621-1766)
WX ASOS at CON (13 nm N): 132.325 (603-224-6558)
WX AWOS-3PT at ASH (13 nm S): 125.1 (603-578-0473)

Nearby radio navigation aids

VOR radial/distance  VOR name  Freq  Var
MHTr345/8.5MANCHESTER VOR/DME114.4015W
CONr176/14.5CONCORD VOR/DME112.9015W
LWMr328/22.2LAWRENCE VOR/DME112.5015W
PSMr275/28.3PEASE VOR/DME116.5016W
GDMr058/37.4GARDNER VOR/DME110.6014W
EENr086/38.2KEENE VORTAC109.4014W

 
NDB name  Hdg/Dist  Freq  Var  ID
EPSOM200/7.621616WCO -.-. ---
FITZY035/8.220915WMJ -- .---
ROLLINS260/31.126016WESG . ... --.

Heliport Services

Runway Information

Helipad H1

Dimensions: 20 x 20 ft. / 6 x 6 m
Surface: ROOF/TOP, in good condition
Latitude: 42-59.543667N
Longitude: 071-27.920167W
Elevation: 250.0 ft.
Traffic pattern: leftleft

Heliport Ownership and Management from official FAA records

Ownership: Privately-owned
Owner: BRADY SULLIVAN TOWER LLC
670 N COMMERCIAL ST, STE 303
MANCHESTER, NH 03101
Phone 603-622-6223
Manager: ANNE BILODEAU
670 N COMMERCIAL ST, STE 303
MANCHESTER, NH 03101
Phone 603-622-6223

Additional Remarks

FOR CD CTC BOSTON APCH AT 603-594-5551.

Instrument Procedures

There are no published instrument procedures at NH34.

Some nearby airports with instrument procedures:

KMHT - Manchester Airport (4 nm S)
KCON - Concord Municipal Airport (13 nm N)
KASH - Boire Field Airport (13 nm S)
KLWM - Lawrence Municipal Airport (22 nm SE)
KAFN - Jaffrey Airport-Silver Ranch (26 nm SW)
 
Loc | Ops | Rwys | IFR | FBO | Links
Com | Nav | Svcs | Stats | Notes
Aerial photo
No photo
 
Airport distance calculator
Flying to Brady Sullivan-Elm Helistop Heliport? Find the distance to fly.

From to NH34

Sunrise and sunset
Times for 03-Apr-2020
 Local
(UTC-4)
 Zulu
(UTC)
Morning civil twilight05:5509:55
Sunrise06:2410:24
Sunset19:1423:14
Evening civil twilight19:4323:43

Current date and time
Zulu (UTC)  03-Apr-2020 11:43:48
Local (UTC-4)  03-Apr-2020 07:43:48
 
METAR
KMHT 
4nm S 
031053Z 34011KT 4SM RA BR FEW010 OVC021 07/05 A2954 RMK AO2 SLP019 P0012 T00670050
KCON 
13nm N 
031051Z AUTO 34007KT 6SM -RA BR OVC021 06/04 A2957 RMK AO2 RAE0957B16 SLP016 P0005 T00560044
KASH 
14nm S 
031119Z 33010KT 7SM RA BKN008 BKN017 OVC024 06/06 A2956 RMK AO2 CIG 007V013 PNO $
TAF
KMHT 
4nm S 
030912Z 0309/0406 34013G21KT 6SM -RA BR SCT008 OVC015 FM031400 02015G32KT 5SM RA BR OVC010 FM031900 03015G28KT 6SM -SHRA BR OVC015 FM040000 01012G20KT P6SM SCT025 OVC050
KCON 
13nm N 
030912Z 0309/0406 33011KT 6SM -RA OVC025 FM031000 36012G20KT 4SM -RA OVC010 FM031400 02013G28KT 5SM RA BR OVC010 FM032000 03013G22KT 6SM -SHRA BR OVC015 FM040100 01010KT P6SM BKN020
NOTAMs
Click for the latest NOTAMs
NOTAMs are issued by the DoD/FAA and will open in a separate window not controlled by AirNav.

 

 
 

Would you like to see your business listed on this page?

 If your business provides an interesting product or service to pilots, flight crews, aircraft, or users of the Brady Sullivan-Elm Helistop Heliport, you should consider listing it here.  To start the listing process, click on the button below
 
Add a business
 

Other Pages about Brady Sullivan-Elm Helistop Heliport

Update a link
 
Copyright © AirNav, LLC. All rights reserved. Privacy Policy  Contact